createdAt,value
2023-02-04T00:04:04.670Z,9.20
2023-02-04T00:07:01.420Z,8.70
2023-02-04T00:11:17.338Z,9.80
2023-02-04T00:14:36.568Z,8.40
2023-02-04T00:17:23.436Z,10.90
2023-02-04T00:20:11.132Z,11.90
2023-02-04T00:22:57.759Z,11.60
2023-02-04T00:25:44.427Z,12.20
2023-02-04T00:28:32.271Z,11.60
2023-02-04T00:31:20.277Z,11.60
2023-02-04T00:34:07.155Z,11.70
2023-02-04T00:36:53.643Z,11.60
2023-02-04T00:41:22.665Z,10.10
2023-02-04T00:45:17.904Z,9.20
2023-02-04T00:48:05.148Z,12.20
2023-02-04T00:50:53.180Z,12.30
2023-02-04T00:53:40.690Z,12.30
2023-02-04T00:56:27.325Z,12.60
2023-02-04T00:59:14.480Z,12.90
2023-02-04T01:02:01.168Z,13.30
2023-02-04T01:04:47.897Z,12.60
2023-02-04T01:07:34.860Z,12.60
2023-02-04T01:10:21.680Z,11.50
2023-02-04T01:13:09.394Z,11.80
2023-02-04T01:15:55.863Z,11.60
2023-02-04T01:18:42.548Z,11.80
2023-02-04T01:21:29.329Z,10.80
2023-02-04T01:24:15.959Z,11.10
2023-02-04T01:27:03.554Z,11.30
2023-02-04T01:29:49.923Z,11.10
2023-02-04T01:32:36.778Z,10.90
2023-02-04T01:35:23.415Z,11.30
2023-02-04T01:38:09.886Z,11.90
2023-02-04T01:40:57.991Z,12.20
2023-02-04T01:43:45.885Z,13.10
2023-02-04T01:46:36.014Z,13.20
2023-02-04T01:49:22.866Z,12.00
2023-02-04T01:52:11.534Z,11.20
2023-02-04T01:54:57.920Z,11.10
2023-02-04T01:58:12.484Z,12.20
2023-02-04T02:00:59.382Z,11.80
2023-02-04T02:03:45.796Z,11.90
2023-02-04T02:06:32.427Z,11.10
2023-02-04T02:09:19.575Z,10.80
2023-02-04T02:12:06.267Z,10.50
2023-02-04T02:14:52.956Z,10.40
2023-02-04T02:17:40.713Z,10.00
2023-02-04T02:20:29.754Z,10.30
2023-02-04T02:23:22.714Z,9.80
2023-02-04T02:26:11.154Z,9.80
2023-02-04T02:28:57.973Z,10.10
2023-02-04T02:31:44.496Z,10.20
2023-02-04T02:38:55.490Z,9.40
2023-02-04T02:41:42.094Z,9.80
2023-02-04T02:44:29.715Z,9.10
2023-02-04T02:47:19.431Z,9.40
2023-02-04T02:54:43.254Z,9.20
2023-02-04T02:57:29.914Z,8.80
2023-02-04T03:00:24.105Z,9.00
2023-02-04T03:03:20.220Z,8.70
2023-02-04T03:06:15.302Z,7.90
2023-02-04T03:09:04.912Z,7.60
2023-02-04T03:11:51.396Z,7.50
2023-02-04T03:14:39.140Z,8.30
2023-02-04T03:17:25.735Z,7.70
2023-02-04T03:20:16.379Z,7.10
2023-02-04T03:23:03.638Z,7.60
2023-02-04T03:25:52.662Z,7.60
2023-02-04T03:28:41.033Z,7.10
2023-02-04T03:31:28.042Z,7.30
2023-02-04T03:34:14.391Z,7.90
2023-02-04T03:37:01.439Z,7.40
2023-02-04T03:39:47.812Z,6.90
2023-02-04T03:42:34.956Z,6.80
2023-02-04T03:45:23.715Z,6.80
2023-02-04T03:48:10.327Z,6.80
2023-02-04T03:50:56.494Z,6.60
2023-02-04T03:53:42.747Z,6.70
2023-02-04T03:56:29.533Z,6.60
2023-02-04T03:59:16.238Z,6.50
2023-02-04T04:02:02.531Z,6.70
2023-02-04T04:04:49.217Z,6.30
2023-02-04T04:07:35.661Z,6.80
2023-02-04T04:10:22.059Z,6.70
2023-02-04T04:13:34.602Z,6.50
2023-02-04T04:16:21.055Z,6.50
2023-02-04T04:19:07.493Z,6.40
2023-02-04T04:21:55.916Z,7.00
2023-02-04T04:24:43.000Z,6.90
2023-02-04T04:27:30.242Z,6.40
2023-02-04T04:30:17.080Z,6.90
2023-02-04T04:33:03.736Z,7.40
2023-02-04T04:35:50.081Z,7.00
2023-02-04T04:38:36.499Z,7.40
2023-02-04T04:41:22.842Z,7.40
2023-02-04T04:44:09.559Z,8.30
2023-02-04T04:46:56.204Z,7.80
2023-02-04T04:49:43.174Z,8.60
2023-02-04T04:52:29.626Z,8.20
2023-02-04T04:59:36.270Z,8.00
2023-02-04T05:02:22.717Z,8.50
2023-02-04T05:05:11.153Z,8.00
2023-02-04T05:07:57.790Z,7.80
2023-02-04T05:10:44.221Z,8.60
2023-02-04T05:13:30.779Z,8.50
2023-02-04T05:16:18.326Z,8.60
2023-02-04T05:19:05.105Z,8.50
2023-02-04T05:26:17.126Z,8.30
2023-02-04T05:29:10.425Z,8.50
2023-02-04T05:31:57.101Z,9.30
2023-02-04T05:34:44.187Z,8.90
2023-02-04T05:37:31.185Z,8.70
2023-02-04T05:40:18.003Z,8.40
2023-02-04T05:43:05.101Z,8.10
2023-02-04T05:45:51.291Z,8.20
2023-02-04T05:48:40.110Z,8.90
2023-02-04T05:51:26.820Z,8.10
2023-02-04T05:54:19.651Z,7.90
2023-02-04T05:57:07.622Z,7.80
2023-02-04T05:59:53.984Z,7.30
2023-02-04T06:02:41.098Z,7.50
2023-02-04T06:05:27.738Z,7.00
2023-02-04T06:08:15.908Z,7.20
2023-02-04T06:11:02.122Z,7.00
2023-02-04T06:13:48.882Z,7.10
2023-02-04T06:16:35.512Z,6.70
2023-02-04T06:19:21.825Z,7.30
2023-02-04T06:22:08.575Z,7.80
2023-02-04T06:24:54.935Z,7.40
2023-02-04T06:27:41.286Z,7.30
2023-02-04T06:30:27.889Z,7.00
2023-02-04T06:33:16.615Z,7.20
2023-02-04T06:36:04.230Z,7.00
2023-02-04T06:38:50.806Z,6.60
2023-02-04T06:41:37.573Z,7.60
2023-02-04T06:44:23.759Z,7.30
2023-02-04T06:47:09.884Z,7.60
2023-02-04T06:49:56.063Z,7.40
2023-02-04T06:52:42.339Z,8.20
2023-02-04T06:55:30.124Z,7.50
2023-02-04T06:58:16.513Z,8.00
2023-02-04T07:01:03.253Z,7.70
2023-02-04T07:03:49.510Z,7.50
2023-02-04T07:06:36.023Z,6.50
2023-02-04T07:09:23.266Z,6.30
2023-02-04T07:12:09.963Z,5.20
2023-02-04T07:14:56.062Z,5.40
2023-02-04T07:17:42.590Z,5.60
2023-02-04T07:20:29.124Z,5.00
2023-02-04T07:23:15.569Z,5.10
2023-02-04T07:26:02.415Z,4.90
2023-02-04T07:28:56.754Z,4.80
2023-02-04T07:31:43.774Z,5.40
2023-02-04T07:34:30.631Z,5.30
2023-02-04T07:37:17.603Z,5.10
2023-02-04T07:40:04.954Z,5.40
2023-02-04T07:42:51.305Z,5.10
2023-02-04T07:45:37.839Z,5.40
2023-02-04T07:48:24.392Z,5.40
2023-02-04T07:51:10.751Z,4.90
2023-02-04T07:53:57.293Z,4.60
2023-02-04T07:56:46.480Z,4.90
2023-02-04T07:59:33.126Z,4.60
2023-02-04T08:02:19.481Z,4.30
2023-02-04T08:05:15.702Z,4.10
2023-02-04T08:08:03.036Z,4.00
2023-02-04T08:10:52.458Z,4.10
2023-02-04T08:13:39.009Z,4.10
2023-02-04T08:17:36.013Z,3.90
2023-02-04T08:21:37.682Z,3.80
2023-02-04T08:24:24.197Z,4.20
2023-02-04T08:27:11.726Z,4.00
2023-02-04T08:30:04.946Z,3.60
2023-02-04T08:32:51.682Z,3.50
2023-02-04T08:35:38.387Z,3.20
2023-02-04T08:39:16.259Z,3.50
2023-02-04T08:42:04.222Z,3.20
2023-02-04T08:44:55.410Z,3.40
2023-02-04T08:49:23.057Z,3.20
2023-02-04T08:52:10.196Z,3.60
2023-02-04T08:54:56.923Z,3.30
2023-02-04T08:57:44.244Z,3.50
2023-02-04T09:00:32.533Z,3.10
2023-02-04T09:03:38.459Z,2.10
2023-02-04T09:06:25.186Z,2.40
2023-02-04T09:09:13.108Z,2.40
2023-02-04T09:12:02.010Z,2.40
2023-02-04T09:14:48.600Z,2.40
2023-02-04T09:17:35.833Z,2.20
2023-02-04T09:20:22.822Z,2.50
2023-02-04T09:23:10.712Z,2.80
2023-02-04T09:25:58.659Z,2.30
2023-02-04T09:28:45.423Z,2.70
2023-02-04T09:31:34.160Z,2.70
2023-02-04T09:34:20.741Z,2.90
2023-02-04T09:39:29.317Z,2.30
2023-02-04T09:43:30.640Z,1.80
2023-02-04T11:14:02.634Z,3.40
2023-02-04T11:17:00.919Z,3.30
2023-02-04T12:12:09.008Z,3.10
2023-02-04T12:15:19.062Z,3.70
2023-02-04T12:18:15.691Z,3.20
2023-02-04T12:24:53.378Z,3.30
2023-02-04T12:46:20.426Z,3.30
2023-02-04T12:50:07.003Z,3.40
2023-02-04T12:53:57.482Z,3.00
2023-02-04T13:00:01.520Z,3.60
2023-02-04T13:12:25.245Z,2.10
2023-02-04T13:26:09.001Z,2.50
2023-02-04T13:28:56.159Z,2.80
2023-02-04T13:31:58.118Z,3.30
2023-02-04T13:34:44.490Z,2.40
2023-02-04T13:37:30.854Z,2.50
2023-02-04T13:40:27.581Z,2.20
2023-02-04T13:58:14.930Z,1.90
2023-02-04T14:26:39.420Z,2.40
2023-02-04T14:40:29.359Z,2.20
2023-02-04T14:44:00.244Z,2.40
2023-02-04T14:47:33.103Z,2.10
2023-02-04T14:51:44.038Z,2.40
2023-02-04T14:54:30.566Z,2.60
2023-02-04T14:57:17.207Z,3.00
2023-02-04T15:00:06.874Z,2.70
2023-02-04T15:02:54.668Z,2.70
2023-02-04T15:05:52.853Z,2.50
2023-02-04T15:09:48.478Z,2.90
2023-02-04T15:24:39.744Z,3.20
2023-02-04T15:27:38.112Z,2.70
2023-02-04T15:30:24.688Z,3.30
2023-02-04T15:33:18.093Z,3.20
2023-02-04T15:36:04.566Z,3.10
2023-02-04T15:39:25.047Z,3.20
2023-02-04T15:45:00.815Z,3.60
2023-02-04T15:48:57.866Z,3.70
2023-02-04T15:52:55.056Z,4.30
2023-02-04T16:07:20.443Z,4.00
2023-02-04T16:10:22.100Z,4.40
2023-02-04T16:13:58.822Z,4.40
2023-02-04T16:17:39.460Z,4.00
2023-02-04T16:21:08.774Z,4.50
2023-02-04T16:25:06.961Z,4.90
2023-02-04T16:29:08.247Z,4.90
2023-02-04T16:43:07.141Z,4.30
2023-02-04T16:45:53.685Z,5.50
2023-02-04T16:48:40.114Z,5.80
2023-02-04T16:51:26.876Z,5.90
2023-02-04T16:54:14.385Z,5.90
2023-02-04T16:57:18.805Z,5.50
2023-02-04T17:01:19.597Z,5.80
2023-02-04T17:05:39.873Z,6.10
2023-02-04T17:09:14.837Z,5.80
2023-02-04T17:22:57.198Z,6.80
2023-02-04T17:26:11.382Z,7.50
2023-02-04T17:28:57.855Z,8.30
2023-02-04T17:31:44.482Z,9.10
2023-02-04T17:34:31.308Z,9.50
2023-02-04T17:37:17.792Z,9.10
2023-02-04T17:40:05.564Z,9.30
2023-02-04T17:42:52.243Z,9.40
2023-02-04T17:45:38.905Z,9.10
2023-02-04T17:48:25.522Z,9.60
2023-02-04T17:51:13.828Z,9.00
2023-02-04T17:54:00.000Z,9.50
2023-02-04T17:56:52.391Z,9.40
2023-02-04T17:59:39.906Z,8.80
2023-02-04T18:02:33.956Z,9.30
2023-02-04T18:05:24.291Z,9.00
2023-02-04T18:08:19.535Z,9.80
2023-02-04T18:11:15.624Z,10.10
2023-02-04T18:14:12.030Z,9.50
2023-02-04T18:16:59.597Z,9.50
2023-02-04T18:24:19.521Z,10.10
2023-02-04T18:27:30.463Z,10.70
2023-02-04T18:30:26.430Z,11.20
2023-02-04T18:33:20.814Z,11.50
2023-02-04T18:36:12.106Z,11.50
2023-02-04T18:38:59.673Z,10.70
2023-02-04T18:41:51.283Z,10.80
2023-02-04T18:44:38.579Z,9.80
2023-02-04T18:47:36.014Z,9.50
2023-02-04T18:50:33.194Z,10.30
2023-02-04T18:53:22.319Z,11.00
2023-02-04T18:56:15.925Z,11.20
2023-02-04T18:59:10.207Z,11.70
2023-02-04T19:01:56.426Z,11.90
2023-02-04T19:04:43.850Z,12.60
2023-02-04T19:07:34.840Z,13.00
2023-02-04T19:10:28.963Z,13.40
2023-02-04T19:13:21.599Z,13.40
2023-02-04T19:16:17.679Z,14.90
2023-02-04T19:19:29.437Z,14.50
2023-02-04T19:22:40.627Z,15.30
2023-02-04T19:25:56.996Z,14.50
2023-02-04T19:28:44.621Z,15.00
2023-02-04T19:31:35.012Z,14.80
2023-02-04T19:34:24.380Z,15.80
2023-02-04T19:37:43.749Z,14.40
2023-02-04T19:40:37.610Z,14.60
2023-02-04T19:43:33.776Z,15.00
2023-02-04T19:46:26.746Z,15.10
2023-02-04T19:49:28.826Z,15.60
2023-02-04T19:52:33.885Z,15.30
2023-02-04T19:55:27.397Z,15.30
2023-02-04T19:58:19.620Z,15.60
2023-02-04T20:01:11.376Z,16.50
2023-02-04T20:04:00.259Z,16.40
2023-02-04T20:06:47.952Z,16.20
2023-02-04T20:09:35.462Z,17.10
2023-02-04T20:12:22.376Z,16.80
2023-02-04T20:15:18.878Z,17.20
2023-02-04T20:18:23.982Z,17.10
2023-02-04T20:21:11.635Z,16.50
2023-02-04T20:23:58.101Z,16.40
2023-02-04T20:26:45.440Z,16.40
2023-02-04T20:29:34.575Z,16.80
2023-02-04T20:32:26.443Z,16.90
2023-02-04T20:35:18.909Z,18.20
2023-02-04T20:38:16.524Z,17.40
2023-02-04T20:41:15.286Z,17.90
2023-02-04T20:44:02.613Z,18.70
2023-02-04T20:46:48.871Z,17.40
2023-02-04T20:49:40.863Z,17.90
2023-02-04T20:52:46.094Z,18.40
2023-02-04T20:55:34.548Z,18.70
2023-02-04T20:58:24.614Z,19.00
2023-02-04T21:01:29.054Z,18.60
2023-02-04T21:04:29.353Z,19.40
2023-02-04T21:07:19.141Z,18.20
2023-02-04T21:10:06.028Z,18.20
2023-02-04T21:12:52.547Z,19.50
2023-02-04T21:15:43.163Z,18.90
2023-02-04T21:18:50.977Z,18.90
2023-02-04T21:21:51.746Z,18.90
2023-02-04T21:24:56.024Z,19.00
2023-02-04T21:27:53.739Z,20.10
2023-02-04T21:30:55.928Z,18.20
2023-02-04T21:34:01.048Z,18.30
2023-02-04T21:36:50.793Z,18.70
2023-02-04T21:39:43.121Z,17.30
2023-02-04T21:43:03.273Z,18.80
2023-02-04T21:45:59.342Z,20.80
2023-02-04T21:48:46.530Z,19.60
2023-02-04T21:51:33.310Z,18.50
2023-02-04T21:54:20.194Z,20.70
2023-02-04T21:57:06.803Z,24.70
2023-02-04T21:59:54.565Z,24.00
2023-02-04T22:02:43.447Z,19.00
2023-02-04T22:05:33.123Z,17.50
2023-02-04T22:08:19.954Z,17.80
2023-02-04T22:11:06.533Z,20.70
2023-02-04T22:13:54.530Z,18.60
2023-02-04T22:16:41.313Z,19.20
2023-02-04T22:19:28.280Z,17.80
2023-02-04T22:22:15.200Z,17.00
2023-02-04T22:25:02.411Z,18.90
2023-02-04T22:27:48.919Z,21.60
2023-02-04T22:30:35.982Z,19.00
2023-02-04T22:33:22.547Z,17.40
2023-02-04T22:36:12.300Z,16.30
2023-02-04T22:38:58.956Z,16.10
2023-02-04T22:41:45.648Z,14.80
2023-02-04T22:44:32.629Z,14.40
2023-02-04T22:47:19.319Z,13.80
2023-02-04T22:50:06.452Z,14.40
2023-02-04T22:52:52.811Z,15.50
2023-02-04T22:55:39.881Z,13.80
2023-02-04T22:58:26.735Z,12.60
2023-02-04T23:01:13.576Z,12.90
2023-02-04T23:04:00.427Z,13.40
2023-02-04T23:06:50.326Z,13.10
2023-02-04T23:09:37.009Z,13.00
2023-02-04T23:12:24.295Z,13.90
2023-02-04T23:15:12.750Z,14.40
2023-02-04T23:18:00.626Z,15.30
2023-02-04T23:20:47.385Z,14.70
2023-02-04T23:23:34.031Z,16.10
2023-02-04T23:26:21.154Z,15.50
2023-02-04T23:29:07.771Z,15.20
2023-02-04T23:31:55.926Z,14.10
2023-02-04T23:34:42.398Z,14.50
2023-02-04T23:37:29.186Z,15.60
2023-02-04T23:40:15.950Z,14.30
2023-02-04T23:43:02.391Z,13.80
2023-02-04T23:45:49.235Z,13.90
2023-02-04T23:48:35.918Z,13.20
2023-02-04T23:51:22.663Z,14.40
2023-02-04T23:54:09.146Z,15.40
2023-02-04T23:56:56.083Z,12.80
2023-02-04T23:59:42.634Z,12.50
